sensor_id;sensor_type;location;lat;lon;timestamp;temperature;humidity
3312;DHT22;1668;49.648;8.570;2024-02-28T00:01:37;5.90;31.60
3312;DHT22;1668;49.648;8.570;2024-02-28T00:04:04;5.90;99.90
3312;DHT22;1668;49.648;8.570;2024-02-28T00:06:31;5.90;99.90
3312;DHT22;1668;49.648;8.570;2024-02-28T00:08:58;5.90;99.90
3312;DHT22;1668;49.648;8.570;2024-02-28T00:11:24;5.80;89.80
3312;DHT22;1668;49.648;8.570;2024-02-28T00:13:51;5.80;99.90
3312;DHT22;1668;49.648;8.570;2024-02-28T00:16:19;5.80;99.90
3312;DHT22;1668;49.648;8.570;2024-02-28T00:18:46;5.70;99.90
3312;DHT22;1668;49.648;8.570;2024-02-28T00:21:13;5.70;1.00
3312;DHT22;1668;49.648;8.570;2024-02-28T00:23:40;5.70;99.90
3312;DHT22;1668;49.648;8.570;2024-02-28T00:26:07;5.70;99.90
3312;DHT22;1668;49.648;8.570;2024-02-28T00:28:34;5.70;1.00
3312;DHT22;1668;49.648;8.570;2024-02-28T00:31:00;5.60;1.00
3312;DHT22;1668;49.648;8.570;2024-02-28T00:33:29;5.60;1.00
3312;DHT22;1668;49.648;8.570;2024-02-28T00:35:56;5.60;1.00
3312;DHT22;1668;49.648;8.570;2024-02-28T00:38:23;5.60;1.00
3312;DHT22;1668;49.648;8.570;2024-02-28T00:40:49;5.50;99.90
3312;DHT22;1668;49.648;8.570;2024-02-28T00:43:16;5.50;1.00
3312;DHT22;1668;49.648;8.570;2024-02-28T00:45:43;5.50;99.90
3312;DHT22;1668;49.648;8.570;2024-02-28T00:48:10;5.50;99.90
3312;DHT22;1668;49.648;8.570;2024-02-28T00:50:38;5.40;1.00
3312;DHT22;1668;49.648;8.570;2024-02-28T00:53:04;5.40;99.90
3312;DHT22;1668;49.648;8.570;2024-02-28T00:55:31;5.40;1.00
3312;DHT22;1668;49.648;8.570;2024-02-28T00:57:58;5.30;1.00
3312;DHT22;1668;49.648;8.570;2024-02-28T01:00:25;5.30;1.00
3312;DHT22;1668;49.648;8.570;2024-02-28T01:02:52;5.30;1.00
3312;DHT22;1668;49.648;8.570;2024-02-28T01:05:19;5.30;1.00
3312;DHT22;1668;49.648;8.570;2024-02-28T01:07:47;5.20;1.00
3312;DHT22;1668;49.648;8.570;2024-02-28T01:10:13;5.20;1.00
3312;DHT22;1668;49.648;8.570;2024-02-28T01:12:40;5.20;1.00
3312;DHT22;1668;49.648;8.570;2024-02-28T01:15:08;5.20;1.00
3312;DHT22;1668;49.648;8.570;2024-02-28T01:17:35;5.20;1.00
3312;DHT22;1668;49.648;8.570;2024-02-28T01:20:02;5.10;99.90
3312;DHT22;1668;49.648;8.570;2024-02-28T01:22:29;5.10;1.00
3312;DHT22;1668;49.648;8.570;2024-02-28T01:24:57;5.10;1.00
3312;DHT22;1668;49.648;8.570;2024-02-28T01:27:24;5.10;1.00
3312;DHT22;1668;49.648;8.570;2024-02-28T01:29:51;5.00;1.00
3312;DHT22;1668;49.648;8.570;2024-02-28T01:32:19;5.00;99.90
3312;DHT22;1668;49.648;8.570;2024-02-28T01:34:45;5.00;99.90
3312;DHT22;1668;49.648;8.570;2024-02-28T01:37:12;5.00;1.00
3312;DHT22;1668;49.648;8.570;2024-02-28T01:39:39;4.90;90.60
3312;DHT22;1668;49.648;8.570;2024-02-28T01:42:08;4.90;99.90
3312;DHT22;1668;49.648;8.570;2024-02-28T01:44:40;4.90;99.90
3312;DHT22;1668;49.648;8.570;2024-02-28T01:47:07;4.80;99.90
3312;DHT22;1668;49.648;8.570;2024-02-28T01:49:34;4.90;1.00
3312;DHT22;1668;49.648;8.570;2024-02-28T01:52:02;4.90;21.80
3312;DHT22;1668;49.648;8.570;2024-02-28T01:54:29;4.80;1.00
3312;DHT22;1668;49.648;8.570;2024-02-28T01:56:56;4.80;1.00
3312;DHT22;1668;49.648;8.570;2024-02-28T01:59:26;4.80;1.00
3312;DHT22;1668;49.648;8.570;2024-02-28T02:01:54;4.70;99.90
3312;DHT22;1668;49.648;8.570;2024-02-28T02:04:21;4.70;99.90
3312;DHT22;1668;49.648;8.570;2024-02-28T02:06:49;4.70;99.90
3312;DHT22;1668;49.648;8.570;2024-02-28T02:09:16;4.70;99.90
3312;DHT22;1668;49.648;8.570;2024-02-28T02:11:43;4.60;1.00
3312;DHT22;1668;49.648;8.570;2024-02-28T02:14:10;4.60;1.00
3312;DHT22;1668;49.648;8.570;2024-02-28T02:16:38;4.60;1.00
3312;DHT22;1668;49.648;8.570;2024-02-28T02:19:06;4.60;1.00
3312;DHT22;1668;49.648;8.570;2024-02-28T02:21:40;4.60;1.00
3312;DHT22;1668;49.648;8.570;2024-02-28T02:24:09;4.60;99.90
3312;DHT22;1668;49.648;8.570;2024-02-28T02:26:36;4.60;99.90
3312;DHT22;1668;49.648;8.570;2024-02-28T02:29:02;4.60;99.90
3312;DHT22;1668;49.648;8.570;2024-02-28T02:31:29;4.50;95.80
3312;DHT22;1668;49.648;8.570;2024-02-28T02:33:56;4.50;99.90
3312;DHT22;1668;49.648;8.570;2024-02-28T02:36:23;4.50;1.00
3312;DHT22;1668;49.648;8.570;2024-02-28T02:38:50;4.40;1.00
3312;DHT22;1668;49.648;8.570;2024-02-28T02:41:18;4.40;99.90
3312;DHT22;1668;49.648;8.570;2024-02-28T02:43:45;4.30;99.90
3312;DHT22;1668;49.648;8.570;2024-02-28T02:46:12;4.30;99.90
3312;DHT22;1668;49.648;8.570;2024-02-28T02:48:38;4.30;99.90
3312;DHT22;1668;49.648;8.570;2024-02-28T02:51:05;4.20;99.90
3312;DHT22;1668;49.648;8.570;2024-02-28T02:53:32;4.20;99.90
3312;DHT22;1668;49.648;8.570;2024-02-28T02:55:59;4.20;1.00
3312;DHT22;1668;49.648;8.570;2024-02-28T02:58:27;4.20;99.90
3312;DHT22;1668;49.648;8.570;2024-02-28T03:00:54;4.20;99.90
3312;DHT22;1668;49.648;8.570;2024-02-28T03:03:20;4.10;1.00
3312;DHT22;1668;49.648;8.570;2024-02-28T03:05:47;4.10;1.00
3312;DHT22;1668;49.648;8.570;2024-02-28T03:08:15;4.10;1.00
3312;DHT22;1668;49.648;8.570;2024-02-28T03:10:42;4.10;1.00
3312;DHT22;1668;49.648;8.570;2024-02-28T03:13:08;4.00;1.00
3312;DHT22;1668;49.648;8.570;2024-02-28T03:15:36;3.90;73.00
3312;DHT22;1668;49.648;8.570;2024-02-28T03:18:04;3.90;1.00
3312;DHT22;1668;49.648;8.570;2024-02-28T03:20:31;3.90;1.00
3312;DHT22;1668;49.648;8.570;2024-02-28T03:22:57;3.90;1.00
3312;DHT22;1668;49.648;8.570;2024-02-28T03:25:25;3.90;1.00
3312;DHT22;1668;49.648;8.570;2024-02-28T03:27:53;3.90;1.00
3312;DHT22;1668;49.648;8.570;2024-02-28T03:30:20;3.90;1.00
3312;DHT22;1668;49.648;8.570;2024-02-28T03:32:48;3.90;1.00
3312;DHT22;1668;49.648;8.570;2024-02-28T03:35:15;3.90;99.90
3312;DHT22;1668;49.648;8.570;2024-02-28T03:37:42;3.80;99.90
3312;DHT22;1668;49.648;8.570;2024-02-28T03:40:09;3.80;1.00
3312;DHT22;1668;49.648;8.570;2024-02-28T03:42:36;3.80;1.00
3312;DHT22;1668;49.648;8.570;2024-02-28T03:45:04;3.80;1.00
3312;DHT22;1668;49.648;8.570;2024-02-28T03:47:31;3.80;1.00
3312;DHT22;1668;49.648;8.570;2024-02-28T03:49:59;3.70;1.00
3312;DHT22;1668;49.648;8.570;2024-02-28T03:52:28;3.70;1.00
3312;DHT22;1668;49.648;8.570;2024-02-28T03:54:55;3.70;1.00
3312;DHT22;1668;49.648;8.570;2024-02-28T03:57:22;3.60;1.00
3312;DHT22;1668;49.648;8.570;2024-02-28T03:59:48;3.60;1.00
3312;DHT22;1668;49.648;8.570;2024-02-28T04:02:15;3.60;1.00
3312;DHT22;1668;49.648;8.570;2024-02-28T04:04:42;3.60;1.00
3312;DHT22;1668;49.648;8.570;2024-02-28T04:07:10;3.60;1.00
3312;DHT22;1668;49.648;8.570;2024-02-28T04:09:37;3.60;1.00
3312;DHT22;1668;49.648;8.570;2024-02-28T04:12:04;3.50;1.00
3312;DHT22;1668;49.648;8.570;2024-02-28T04:14:31;3.40;1.00
3312;DHT22;1668;49.648;8.570;2024-02-28T04:16:58;3.40;1.00
3312;DHT22;1668;49.648;8.570;2024-02-28T04:19:25;3.40;28.80
3312;DHT22;1668;49.648;8.570;2024-02-28T04:21:52;3.30;1.00
3312;DHT22;1668;49.648;8.570;2024-02-28T04:24:20;3.30;1.00
3312;DHT22;1668;49.648;8.570;2024-02-28T04:26:47;3.20;39.00
3312;DHT22;1668;49.648;8.570;2024-02-28T04:29:13;3.20;99.90
3312;DHT22;1668;49.648;8.570;2024-02-28T04:31:40;3.10;99.90
3312;DHT22;1668;49.648;8.570;2024-02-28T04:34:07;3.10;99.90
3312;DHT22;1668;49.648;8.570;2024-02-28T04:36:34;3.10;99.90
3312;DHT22;1668;49.648;8.570;2024-02-28T04:39:01;3.20;99.90
3312;DHT22;1668;49.648;8.570;2024-02-28T04:41:33;3.20;99.90
3312;DHT22;1668;49.648;8.570;2024-02-28T04:44:00;3.20;99.90
3312;DHT22;1668;49.648;8.570;2024-02-28T04:46:26;3.20;99.90
3312;DHT22;1668;49.648;8.570;2024-02-28T04:48:53;3.10;99.90
3312;DHT22;1668;49.648;8.570;2024-02-28T04:51:20;3.10;99.90
3312;DHT22;1668;49.648;8.570;2024-02-28T04:53:47;3.10;99.90
3312;DHT22;1668;49.648;8.570;2024-02-28T04:56:14;3.10;99.90
3312;DHT22;1668;49.648;8.570;2024-02-28T04:58:42;3.00;99.90
3312;DHT22;1668;49.648;8.570;2024-02-28T05:01:09;3.00;99.90
3312;DHT22;1668;49.648;8.570;2024-02-28T05:03:35;3.00;99.90
3312;DHT22;1668;49.648;8.570;2024-02-28T05:06:02;3.00;99.90
3312;DHT22;1668;49.648;8.570;2024-02-28T05:08:30;3.00;99.90
3312;DHT22;1668;49.648;8.570;2024-02-28T05:10:56;2.90;96.70
3312;DHT22;1668;49.648;8.570;2024-02-28T05:13:23;2.90;43.00
3312;DHT22;1668;49.648;8.570;2024-02-28T05:15:52;2.80;30.20
3312;DHT22;1668;49.648;8.570;2024-02-28T05:18:18;2.80;99.90
3312;DHT22;1668;49.648;8.570;2024-02-28T05:20:46;2.70;99.90
3312;DHT22;1668;49.648;8.570;2024-02-28T05:23:13;2.70;99.90
3312;DHT22;1668;49.648;8.570;2024-02-28T05:25:40;2.70;1.00
3312;DHT22;1668;49.648;8.570;2024-02-28T05:28:07;2.70;1.00
3312;DHT22;1668;49.648;8.570;2024-02-28T05:30:34;2.60;99.90
3312;DHT22;1668;49.648;8.570;2024-02-28T05:33:02;2.50;1.00
3312;DHT22;1668;49.648;8.570;2024-02-28T05:35:30;2.50;1.00
3312;DHT22;1668;49.648;8.570;2024-02-28T05:37:57;2.50;1.00
3312;DHT22;1668;49.648;8.570;2024-02-28T05:40:23;2.50;1.00
3312;DHT22;1668;49.648;8.570;2024-02-28T05:42:50;2.50;1.00
3312;DHT22;1668;49.648;8.570;2024-02-28T05:45:17;2.50;1.00
3312;DHT22;1668;49.648;8.570;2024-02-28T05:47:44;2.50;1.00
3312;DHT22;1668;49.648;8.570;2024-02-28T05:50:12;2.50;1.00
3312;DHT22;1668;49.648;8.570;2024-02-28T05:52:41;2.50;1.00
3312;DHT22;1668;49.648;8.570;2024-02-28T05:55:08;2.50;1.00
3312;DHT22;1668;49.648;8.570;2024-02-28T05:57:35;2.50;1.00
3312;DHT22;1668;49.648;8.570;2024-02-28T06:00:02;2.50;1.00
3312;DHT22;1668;49.648;8.570;2024-02-28T06:02:35;2.50;1.00
3312;DHT22;1668;49.648;8.570;2024-02-28T06:05:03;2.50;1.00
3312;DHT22;1668;49.648;8.570;2024-02-28T06:07:31;2.50;1.00
3312;DHT22;1668;49.648;8.570;2024-02-28T06:09:58;2.40;99.90
3312;DHT22;1668;49.648;8.570;2024-02-28T06:12:25;2.40;1.00
3312;DHT22;1668;49.648;8.570;2024-02-28T06:14:52;2.50;1.00
3312;DHT22;1668;49.648;8.570;2024-02-28T06:17:20;2.40;1.00
3312;DHT22;1668;49.648;8.570;2024-02-28T06:19:47;2.40;1.00
3312;DHT22;1668;49.648;8.570;2024-02-28T06:22:14;2.40;1.00
3312;DHT22;1668;49.648;8.570;2024-02-28T06:24:42;2.40;1.00
3312;DHT22;1668;49.648;8.570;2024-02-28T06:27:08;2.40;1.00
3312;DHT22;1668;49.648;8.570;2024-02-28T06:29:38;2.30;1.00
3312;DHT22;1668;49.648;8.570;2024-02-28T06:32:04;2.30;1.00
3312;DHT22;1668;49.648;8.570;2024-02-28T06:34:31;2.30;1.00
3312;DHT22;1668;49.648;8.570;2024-02-28T06:36:58;2.30;1.00
3312;DHT22;1668;49.648;8.570;2024-02-28T06:39:25;2.30;1.00
3312;DHT22;1668;49.648;8.570;2024-02-28T06:41:53;2.30;1.00
3312;DHT22;1668;49.648;8.570;2024-02-28T06:44:20;2.20;1.00
3312;DHT22;1668;49.648;8.570;2024-02-28T06:46:47;2.20;1.00
3312;DHT22;1668;49.648;8.570;2024-02-28T06:49:14;2.30;1.00
3312;DHT22;1668;49.648;8.570;2024-02-28T06:51:41;2.30;1.00
3312;DHT22;1668;49.648;8.570;2024-02-28T06:54:08;2.30;1.00
3312;DHT22;1668;49.648;8.570;2024-02-28T06:56:36;2.40;1.00
3312;DHT22;1668;49.648;8.570;2024-02-28T06:59:04;2.40;1.00
3312;DHT22;1668;49.648;8.570;2024-02-28T07:01:32;2.40;1.00
3312;DHT22;1668;49.648;8.570;2024-02-28T07:03:59;2.40;1.00
3312;DHT22;1668;49.648;8.570;2024-02-28T07:06:26;2.40;1.00
3312;DHT22;1668;49.648;8.570;2024-02-28T07:08:52;2.40;1.00
3312;DHT22;1668;49.648;8.570;2024-02-28T07:11:19;2.40;1.00
3312;DHT22;1668;49.648;8.570;2024-02-28T07:13:47;2.30;1.00
3312;DHT22;1668;49.648;8.570;2024-02-28T07:16:15;2.40;1.00
3312;DHT22;1668;49.648;8.570;2024-02-28T07:18:42;2.40;1.00
3312;DHT22;1668;49.648;8.570;2024-02-28T07:21:09;2.40;1.00
3312;DHT22;1668;49.648;8.570;2024-02-28T07:23:39;2.40;1.00
3312;DHT22;1668;49.648;8.570;2024-02-28T07:26:06;2.40;1.00
3312;DHT22;1668;49.648;8.570;2024-02-28T07:28:33;2.50;1.00
3312;DHT22;1668;49.648;8.570;2024-02-28T07:30:59;2.50;1.00
3312;DHT22;1668;49.648;8.570;2024-02-28T07:33:28;2.50;1.00
3312;DHT22;1668;49.648;8.570;2024-02-28T07:35:55;2.50;9.00
3312;DHT22;1668;49.648;8.570;2024-02-28T07:38:26;2.50;9.90
3312;DHT22;1668;49.648;8.570;2024-02-28T07:40:54;2.60;11.10
3312;DHT22;1668;49.648;8.570;2024-02-28T07:43:20;2.60;13.90
3312;DHT22;1668;49.648;8.570;2024-02-28T07:45:47;2.60;12.20
3312;DHT22;1668;49.648;8.570;2024-02-28T07:48:14;2.70;6.10
3312;DHT22;1668;49.648;8.570;2024-02-28T07:50:44;2.70;3.80
3312;DHT22;1668;49.648;8.570;2024-02-28T07:53:11;2.70;11.10
3312;DHT22;1668;49.648;8.570;2024-02-28T07:55:38;2.80;18.90
3312;DHT22;1668;49.648;8.570;2024-02-28T07:58:05;2.90;28.90
3312;DHT22;1668;49.648;8.570;2024-02-28T08:00:32;2.90;35.20
3312;DHT22;1668;49.648;8.570;2024-02-28T08:02:59;3.00;31.90
3312;DHT22;1668;49.648;8.570;2024-02-28T08:05:26;3.00;13.60
3312;DHT22;1668;49.648;8.570;2024-02-28T08:07:54;3.00;16.20
3312;DHT22;1668;49.648;8.570;2024-02-28T08:10:21;3.10;18.70
3312;DHT22;1668;49.648;8.570;2024-02-28T08:12:48;3.10;24.80
3312;DHT22;1668;49.648;8.570;2024-02-28T08:15:15;3.10;26.20
3312;DHT22;1668;49.648;8.570;2024-02-28T08:17:42;3.20;11.30
3312;DHT22;1668;49.648;8.570;2024-02-28T08:20:09;3.20;9.90
3312;DHT22;1668;49.648;8.570;2024-02-28T08:22:36;3.30;2.90
3312;DHT22;1668;49.648;8.570;2024-02-28T08:25:05;3.30;6.30
3312;DHT22;1668;49.648;8.570;2024-02-28T08:27:32;3.40;19.20
3312;DHT22;1668;49.648;8.570;2024-02-28T08:30:00;3.40;16.10
3312;DHT22;1668;49.648;8.570;2024-02-28T08:32:27;3.50;22.60
3312;DHT22;1668;49.648;8.570;2024-02-28T08:34:54;3.60;3.20
3312;DHT22;1668;49.648;8.570;2024-02-28T08:37:23;3.60;1.00
3312;DHT22;1668;49.648;8.570;2024-02-28T08:39:50;3.70;1.00
3312;DHT22;1668;49.648;8.570;2024-02-28T08:42:18;3.70;1.00
3312;DHT22;1668;49.648;8.570;2024-02-28T08:44:46;3.80;1.00
3312;DHT22;1668;49.648;8.570;2024-02-28T08:47:13;3.80;1.00
3312;DHT22;1668;49.648;8.570;2024-02-28T08:49:40;3.90;1.00
3312;DHT22;1668;49.648;8.570;2024-02-28T08:52:07;3.90;1.00
3312;DHT22;1668;49.648;8.570;2024-02-28T08:54:34;4.00;1.00
3312;DHT22;1668;49.648;8.570;2024-02-28T08:57:01;4.00;1.00
3312;DHT22;1668;49.648;8.570;2024-02-28T08:59:30;4.00;1.00
3312;DHT22;1668;49.648;8.570;2024-02-28T09:01:57;4.10;1.00
3312;DHT22;1668;49.648;8.570;2024-02-28T09:04:24;4.20;1.00
3312;DHT22;1668;49.648;8.570;2024-02-28T09:06:51;4.30;1.00
3312;DHT22;1668;49.648;8.570;2024-02-28T09:09:18;4.30;1.00
3312;DHT22;1668;49.648;8.570;2024-02-28T09:11:44;4.40;1.00
3312;DHT22;1668;49.648;8.570;2024-02-28T09:14:11;4.40;1.00
3312;DHT22;1668;49.648;8.570;2024-02-28T09:16:39;4.50;1.00
3312;DHT22;1668;49.648;8.570;2024-02-28T09:19:06;4.60;1.00
3312;DHT22;1668;49.648;8.570;2024-02-28T09:21:33;4.60;1.00
3312;DHT22;1668;49.648;8.570;2024-02-28T09:24:00;4.70;1.00
3312;DHT22;1668;49.648;8.570;2024-02-28T09:26:28;4.80;1.00
3312;DHT22;1668;49.648;8.570;2024-02-28T09:28:54;4.90;1.00
3312;DHT22;1668;49.648;8.570;2024-02-28T09:31:21;4.90;1.00
3312;DHT22;1668;49.648;8.570;2024-02-28T09:33:49;5.00;1.00
3312;DHT22;1668;49.648;8.570;2024-02-28T09:36:16;5.10;1.00
3312;DHT22;1668;49.648;8.570;2024-02-28T09:38:43;5.10;1.00
3312;DHT22;1668;49.648;8.570;2024-02-28T09:41:14;5.10;99.90
3312;DHT22;1668;49.648;8.570;2024-02-28T09:43:41;5.20;99.90
3312;DHT22;1668;49.648;8.570;2024-02-28T09:46:08;5.30;99.90
3312;DHT22;1668;49.648;8.570;2024-02-28T09:48:38;5.50;99.90
3312;DHT22;1668;49.648;8.570;2024-02-28T09:51:08;5.50;99.90
3312;DHT22;1668;49.648;8.570;2024-02-28T09:53:35;5.50;99.90
3312;DHT22;1668;49.648;8.570;2024-02-28T09:56:04;5.60;1.00
3312;DHT22;1668;49.648;8.570;2024-02-28T09:58:33;5.60;1.00
3312;DHT22;1668;49.648;8.570;2024-02-28T10:01:02;5.70;60.00
3312;DHT22;1668;49.648;8.570;2024-02-28T10:03:30;5.80;99.90
3312;DHT22;1668;49.648;8.570;2024-02-28T10:05:57;5.90;99.90
3312;DHT22;1668;49.648;8.570;2024-02-28T10:08:25;6.00;99.90
3312;DHT22;1668;49.648;8.570;2024-02-28T10:10:53;6.00;74.90
3312;DHT22;1668;49.648;8.570;2024-02-28T10:13:21;6.10;2.90
3312;DHT22;1668;49.648;8.570;2024-02-28T10:15:49;6.20;1.00
3312;DHT22;1668;49.648;8.570;2024-02-28T10:18:16;6.30;1.00
3312;DHT22;1668;49.648;8.570;2024-02-28T10:20:43;6.40;1.00
3312;DHT22;1668;49.648;8.570;2024-02-28T10:23:10;6.50;1.00
3312;DHT22;1668;49.648;8.570;2024-02-28T10:25:43;6.60;1.00
3312;DHT22;1668;49.648;8.570;2024-02-28T10:28:11;6.70;99.90
3312;DHT22;1668;49.648;8.570;2024-02-28T10:30:40;6.70;99.90
3312;DHT22;1668;49.648;8.570;2024-02-28T10:33:10;6.80;99.90
3312;DHT22;1668;49.648;8.570;2024-02-28T10:35:37;7.00;99.90
3312;DHT22;1668;49.648;8.570;2024-02-28T10:38:05;7.00;2.10
3312;DHT22;1668;49.648;8.570;2024-02-28T10:40:33;7.10;16.70
3312;DHT22;1668;49.648;8.570;2024-02-28T10:43:02;7.20;1.00
3312;DHT22;1668;49.648;8.570;2024-02-28T10:45:31;7.40;99.90
3312;DHT22;1668;49.648;8.570;2024-02-28T10:47:58;7.40;1.00
3312;DHT22;1668;49.648;8.570;2024-02-28T10:50:25;7.50;1.00
3312;DHT22;1668;49.648;8.570;2024-02-28T10:52:53;7.70;1.00
3312;DHT22;1668;49.648;8.570;2024-02-28T10:55:21;7.80;99.90
3312;DHT22;1668;49.648;8.570;2024-02-28T10:57:54;7.80;99.90
3312;DHT22;1668;49.648;8.570;2024-02-28T11:00:26;8.00;99.90
3312;DHT22;1668;49.648;8.570;2024-02-28T11:02:54;8.10;99.90
3312;DHT22;1668;49.648;8.570;2024-02-28T11:05:21;8.20;1.00
3312;DHT22;1668;49.648;8.570;2024-02-28T11:07:51;8.30;99.90
3312;DHT22;1668;49.648;8.570;2024-02-28T11:10:23;8.40;99.90
3312;DHT22;1668;49.648;8.570;2024-02-28T11:12:54;8.60;99.90
3312;DHT22;1668;49.648;8.570;2024-02-28T11:15:26;8.70;1.00
3312;DHT22;1668;49.648;8.570;2024-02-28T11:17:54;8.70;1.00
3312;DHT22;1668;49.648;8.570;2024-02-28T11:20:21;8.80;1.00
3312;DHT22;1668;49.648;8.570;2024-02-28T11:22:48;9.00;1.00
3312;DHT22;1668;49.648;8.570;2024-02-28T11:25:23;9.00;99.90
3312;DHT22;1668;49.648;8.570;2024-02-28T11:27:50;9.10;99.90
3312;DHT22;1668;49.648;8.570;2024-02-28T11:30:17;9.10;99.90
3312;DHT22;1668;49.648;8.570;2024-02-28T11:32:45;9.30;99.90
3312;DHT22;1668;49.648;8.570;2024-02-28T11:35:13;9.50;99.90
3312;DHT22;1668;49.648;8.570;2024-02-28T11:37:40;9.70;1.00
3312;DHT22;1668;49.648;8.570;2024-02-28T11:40:08;9.70;1.00
3312;DHT22;1668;49.648;8.570;2024-02-28T11:42:35;9.70;1.00
3312;DHT22;1668;49.648;8.570;2024-02-28T11:45:02;9.70;1.00
3312;DHT22;1668;49.648;8.570;2024-02-28T11:47:31;9.80;1.00
3312;DHT22;1668;49.648;8.570;2024-02-28T11:50:01;10.00;1.00
3312;DHT22;1668;49.648;8.570;2024-02-28T11:52:30;10.10;1.00
3312;DHT22;1668;49.648;8.570;2024-02-28T11:54:57;10.20;1.00
3312;DHT22;1668;49.648;8.570;2024-02-28T11:57:24;10.20;1.00
3312;DHT22;1668;49.648;8.570;2024-02-28T11:59:52;10.40;1.00
3312;DHT22;1668;49.648;8.570;2024-02-28T12:02:19;10.50;1.00
3312;DHT22;1668;49.648;8.570;2024-02-28T12:04:51;10.60;1.00
3312;DHT22;1668;49.648;8.570;2024-02-28T12:07:21;10.70;99.90
3312;DHT22;1668;49.648;8.570;2024-02-28T12:09:48;10.70;99.90
3312;DHT22;1668;49.648;8.570;2024-02-28T12:12:15;10.80;1.00
3312;DHT22;1668;49.648;8.570;2024-02-28T12:14:44;11.00;1.00
3312;DHT22;1668;49.648;8.570;2024-02-28T12:17:14;11.10;99.90
3312;DHT22;1668;49.648;8.570;2024-02-28T12:19:41;11.30;99.90
3312;DHT22;1668;49.648;8.570;2024-02-28T12:22:09;11.30;99.90
3312;DHT22;1668;49.648;8.570;2024-02-28T12:24:37;11.30;99.90
3312;DHT22;1668;49.648;8.570;2024-02-28T12:27:04;11.30;99.90
3312;DHT22;1668;49.648;8.570;2024-02-28T12:29:31;11.30;99.90
3312;DHT22;1668;49.648;8.570;2024-02-28T12:31:58;11.40;99.90
3312;DHT22;1668;49.648;8.570;2024-02-28T12:34:25;11.60;99.90
3312;DHT22;1668;49.648;8.570;2024-02-28T12:36:52;11.60;99.90
3312;DHT22;1668;49.648;8.570;2024-02-28T12:39:19;11.70;99.90
3312;DHT22;1668;49.648;8.570;2024-02-28T12:41:48;11.80;99.90
3312;DHT22;1668;49.648;8.570;2024-02-28T12:44:15;11.80;99.90
3312;DHT22;1668;49.648;8.570;2024-02-28T12:46:41;11.70;99.90
3312;DHT22;1668;49.648;8.570;2024-02-28T12:49:08;11.80;99.90
3312;DHT22;1668;49.648;8.570;2024-02-28T12:51:37;11.90;99.90
3312;DHT22;1668;49.648;8.570;2024-02-28T12:54:05;11.90;99.90
3312;DHT22;1668;49.648;8.570;2024-02-28T12:56:33;11.90;99.90
3312;DHT22;1668;49.648;8.570;2024-02-28T12:59:01;11.90;99.90
3312;DHT22;1668;49.648;8.570;2024-02-28T13:01:29;12.00;99.90
3312;DHT22;1668;49.648;8.570;2024-02-28T13:03:56;11.90;99.90
3312;DHT22;1668;49.648;8.570;2024-02-28T13:06:23;12.10;99.90
3312;DHT22;1668;49.648;8.570;2024-02-28T13:08:50;12.30;99.90
3312;DHT22;1668;49.648;8.570;2024-02-28T13:19:05;12.30;99.90
3312;DHT22;1668;49.648;8.570;2024-02-28T13:21:32;12.20;99.90
3312;DHT22;1668;49.648;8.570;2024-02-28T13:23:59;12.20;99.90
3312;DHT22;1668;49.648;8.570;2024-02-28T13:26:26;12.20;99.90
3312;DHT22;1668;49.648;8.570;2024-02-28T13:28:53;12.50;99.90
3312;DHT22;1668;49.648;8.570;2024-02-28T13:31:22;12.70;99.90
3312;DHT22;1668;49.648;8.570;2024-02-28T13:33:49;12.80;99.90
3312;DHT22;1668;49.648;8.570;2024-02-28T13:36:18;12.70;80.00
3312;DHT22;1668;49.648;8.570;2024-02-28T13:38:44;12.80;64.60
3312;DHT22;1668;49.648;8.570;2024-02-28T13:44:25;12.80;29.90
3312;DHT22;1668;49.648;8.570;2024-02-28T13:57:18;12.30;1.00
3312;DHT22;1668;49.648;8.570;2024-02-28T13:59:45;12.30;1.00
3312;DHT22;1668;49.648;8.570;2024-02-28T14:02:14;12.20;1.00
3312;DHT22;1668;49.648;8.570;2024-02-28T14:04:41;12.30;1.00
3312;DHT22;1668;49.648;8.570;2024-02-28T14:07:08;12.20;1.00
3312;DHT22;1668;49.648;8.570;2024-02-28T14:09:35;12.20;1.00
3312;DHT22;1668;49.648;8.570;2024-02-28T14:12:02;12.10;1.00
3312;DHT22;1668;49.648;8.570;2024-02-28T14:14:31;12.10;1.00
3312;DHT22;1668;49.648;8.570;2024-02-28T14:16:57;12.10;1.00
3312;DHT22;1668;49.648;8.570;2024-02-28T14:19:24;12.00;1.00
3312;DHT22;1668;49.648;8.570;2024-02-28T14:21:51;12.00;1.00
3312;DHT22;1668;49.648;8.570;2024-02-28T14:24:18;12.00;1.00
3312;DHT22;1668;49.648;8.570;2024-02-28T14:26:45;12.00;9.90
3312;DHT22;1668;49.648;8.570;2024-02-28T14:29:13;12.10;48.70
3312;DHT22;1668;49.648;8.570;2024-02-28T14:31:41;12.00;27.90
3312;DHT22;1668;49.648;8.570;2024-02-28T14:34:08;12.00;30.10
3312;DHT22;1668;49.648;8.570;2024-02-28T14:36:35;12.10;81.60
3312;DHT22;1668;49.648;8.570;2024-02-28T14:39:02;12.00;65.30
3312;DHT22;1668;49.648;8.570;2024-02-28T14:41:30;12.10;59.10
3312;DHT22;1668;49.648;8.570;2024-02-28T14:43:57;12.20;56.70
3312;DHT22;1668;49.648;8.570;2024-02-28T14:46:24;12.40;72.90
3312;DHT22;1668;49.648;8.570;2024-02-28T14:48:52;12.50;88.10
3312;DHT22;1668;49.648;8.570;2024-02-28T14:51:20;12.50;85.20
3312;DHT22;1668;49.648;8.570;2024-02-28T14:53:49;12.50;52.90
3312;DHT22;1668;49.648;8.570;2024-02-28T14:56:16;12.60;67.80
3312;DHT22;1668;49.648;8.570;2024-02-28T14:58:44;12.60;38.30
3312;DHT22;1668;49.648;8.570;2024-02-28T15:01:11;12.50;28.60
3312;DHT22;1668;49.648;8.570;2024-02-28T15:03:39;12.40;19.60
3312;DHT22;1668;49.648;8.570;2024-02-28T15:06:08;12.30;36.80
3312;DHT22;1668;49.648;8.570;2024-02-28T15:08:35;12.40;18.00
3312;DHT22;1668;49.648;8.570;2024-02-28T15:11:02;12.50;37.70
3312;DHT22;1668;49.648;8.570;2024-02-28T15:13:29;12.50;27.50
3312;DHT22;1668;49.648;8.570;2024-02-28T15:15:56;12.30;39.70
3312;DHT22;1668;49.648;8.570;2024-02-28T15:18:23;12.30;13.90
3312;DHT22;1668;49.648;8.570;2024-02-28T15:20:51;12.40;3.10
3312;DHT22;1668;49.648;8.570;2024-02-28T15:23:21;12.50;26.40
3312;DHT22;1668;49.648;8.570;2024-02-28T15:25:48;12.90;32.80
3312;DHT22;1668;49.648;8.570;2024-02-28T15:28:19;13.10;7.80
3312;DHT22;1668;49.648;8.570;2024-02-28T15:30:47;13.20;5.00
3312;DHT22;1668;49.648;8.570;2024-02-28T15:33:14;12.90;1.00
3312;DHT22;1668;49.648;8.570;2024-02-28T15:35:42;12.70;17.40
3312;DHT22;1668;49.648;8.570;2024-02-28T15:38:09;12.50;4.30
3312;DHT22;1668;49.648;8.570;2024-02-28T15:40:40;12.40;11.80
3312;DHT22;1668;49.648;8.570;2024-02-28T15:43:07;12.30;13.70
3312;DHT22;1668;49.648;8.570;2024-02-28T15:45:34;12.20;15.00
3312;DHT22;1668;49.648;8.570;2024-02-28T15:48:04;12.00;52.50
3312;DHT22;1668;49.648;8.570;2024-02-28T15:50:31;12.00;60.80
3312;DHT22;1668;49.648;8.570;2024-02-28T15:52:59;12.00;59.00
3312;DHT22;1668;49.648;8.570;2024-02-28T15:55:27;11.90;45.00
3312;DHT22;1668;49.648;8.570;2024-02-28T15:57:55;11.80;35.40
3312;DHT22;1668;49.648;8.570;2024-02-28T16:00:22;11.70;69.50
3312;DHT22;1668;49.648;8.570;2024-02-28T16:02:49;11.70;90.20
3312;DHT22;1668;49.648;8.570;2024-02-28T16:05:16;11.70;76.20
3312;DHT22;1668;49.648;8.570;2024-02-28T16:07:43;11.60;44.90
3312;DHT22;1668;49.648;8.570;2024-02-28T16:10:10;11.60;61.00
3312;DHT22;1668;49.648;8.570;2024-02-28T16:12:37;11.50;70.00
3312;DHT22;1668;49.648;8.570;2024-02-28T16:15:05;11.40;56.50
3312;DHT22;1668;49.648;8.570;2024-02-28T16:17:33;11.40;94.20
3312;DHT22;1668;49.648;8.570;2024-02-28T16:20:00;11.20;53.40
3312;DHT22;1668;49.648;8.570;2024-02-28T16:22:29;11.20;99.90
3312;DHT22;1668;49.648;8.570;2024-02-28T16:24:56;11.20;99.90
3312;DHT22;1668;49.648;8.570;2024-02-28T16:27:23;11.10;99.90
3312;DHT22;1668;49.648;8.570;2024-02-28T16:29:50;11.10;99.90
3312;DHT22;1668;49.648;8.570;2024-02-28T16:32:19;11.10;99.90
3312;DHT22;1668;49.648;8.570;2024-02-28T16:34:45;11.00;99.90
3312;DHT22;1668;49.648;8.570;2024-02-28T16:37:12;11.00;99.90
3312;DHT22;1668;49.648;8.570;2024-02-28T16:39:39;10.90;99.90
3312;DHT22;1668;49.648;8.570;2024-02-28T16:42:06;10.90;99.90
3312;DHT22;1668;49.648;8.570;2024-02-28T16:44:33;10.80;99.90